<?xml version="1.0" encoding="UTF-8" standalone="no" ?>
<gpx xmlns="http://www.topografix.com/GPX/1/1" xmlns:xsi="http://www.w3.org/2001/XMLSchema-instance" xsi:schemaLocation="http://www.topografix.com/GPX/1/1 http://www.topografix.com/GPX/1/1/gpx.xsd" version="1.1" creator="VisuGPX - https://www.visugpx.com">
  <metadata>
    <name>Sautron_Autour_8-10km</name>
    <desc><![CDATA[gnerando idor8372687_6691475_6690164_8372687]]></desc>
  </metadata>
  <trk>
    <name><![CDATA[Sautron_Manoirs_19.25km-14184746]]></name>
    <extensions>
      <line xmlns="http://www.topografix.com/GPX/gpx_style/0/2">
        <color>400040</color>
        <width>4</width>
      </line>
    </extensions>
    <trkseg>
      <trkpt lat="47.26024" lon="-1.65714">
        <ele>63</ele>
        <time>2023-11-13T18:59:46Z</time>
      </trkpt>
      <trkpt lat="47.26008" lon="-1.65772">
        <ele>63</ele>
        <time>2023-11-13T19:00:43Z</time>
      </trkpt>
      <trkpt lat="47.26026" lon="-1.65886">
        <ele>62</ele>
        <time>2023-11-13T19:02:29Z</time>
      </trkpt>
      <trkpt lat="47.26042" lon="-1.65904">
        <ele>62</ele>
        <time>2023-11-13T19:02:56Z</time>
      </trkpt>
      <trkpt lat="47.26062" lon="-1.65895">
        <ele>63</ele>
        <time>2023-11-13T19:03:23Z</time>
      </trkpt>
      <trkpt lat="47.26101" lon="-1.65884">
        <ele>63</ele>
        <time>2023-11-13T19:04:16Z</time>
      </trkpt>
      <trkpt lat="47.2612" lon="-1.65882">
        <ele>64</ele>
        <time>2023-11-13T19:04:42Z</time>
      </trkpt>
      <trkpt lat="47.26139" lon="-1.65887">
        <ele>64</ele>
        <time>2023-11-13T19:05:08Z</time>
      </trkpt>
      <trkpt lat="47.26158" lon="-1.65898">
        <ele>63</ele>
        <time>2023-11-13T19:05:35Z</time>
      </trkpt>
      <trkpt lat="47.26179" lon="-1.65902">
        <ele>63</ele>
        <time>2023-11-13T19:06:03Z</time>
      </trkpt>
      <trkpt lat="47.26241" lon="-1.65878">
        <ele>60</ele>
        <time>2023-11-13T19:07:29Z</time>
      </trkpt>
      <trkpt lat="47.26248" lon="-1.65817">
        <ele>60</ele>
        <time>2023-11-13T19:08:25Z</time>
      </trkpt>
      <trkpt lat="47.26258" lon="-1.65791">
        <ele>61</ele>
        <time>2023-11-13T19:08:52Z</time>
      </trkpt>
      <trkpt lat="47.26264" lon="-1.65764">
        <ele>61</ele>
        <time>2023-11-13T19:09:18Z</time>
      </trkpt>
      <trkpt lat="47.26275" lon="-1.65737">
        <ele>61</ele>
        <time>2023-11-13T19:09:46Z</time>
      </trkpt>
      <trkpt lat="47.26292" lon="-1.65715">
        <ele>59</ele>
        <time>2023-11-13T19:10:16Z</time>
      </trkpt>
      <trkpt lat="47.26314" lon="-1.65721">
        <ele>58</ele>
        <time>2023-11-13T19:10:46Z</time>
      </trkpt>
      <trkpt lat="47.26352" lon="-1.65715">
        <ele>55</ele>
        <time>2023-11-13T19:11:37Z</time>
      </trkpt>
      <trkpt lat="47.2637" lon="-1.65707">
        <ele>54</ele>
        <time>2023-11-13T19:12:02Z</time>
      </trkpt>
      <trkpt lat="47.26389" lon="-1.65704">
        <ele>52</ele>
        <time>2023-11-13T19:12:28Z</time>
      </trkpt>
      <trkpt lat="47.26409" lon="-1.65707">
        <ele>51</ele>
        <time>2023-11-13T19:12:54Z</time>
      </trkpt>
      <trkpt lat="47.26423" lon="-1.65729">
        <ele>50</ele>
        <time>2023-11-13T19:13:22Z</time>
      </trkpt>
      <trkpt lat="47.26458" lon="-1.65754">
        <ele>46</ele>
        <time>2023-11-13T19:14:14Z</time>
      </trkpt>
      <trkpt lat="47.26474" lon="-1.65769">
        <ele>44</ele>
        <time>2023-11-13T19:14:39Z</time>
      </trkpt>
      <trkpt lat="47.26489" lon="-1.65789">
        <ele>41</ele>
        <time>2023-11-13T19:15:06Z</time>
      </trkpt>
      <trkpt lat="47.26497" lon="-1.65814">
        <ele>39</ele>
        <time>2023-11-13T19:15:31Z</time>
      </trkpt>
      <trkpt lat="47.26515" lon="-1.65826">
        <ele>37</ele>
        <time>2023-11-13T19:15:57Z</time>
      </trkpt>
      <trkpt lat="47.2652" lon="-1.65854">
        <ele>36</ele>
        <time>2023-11-13T19:16:24Z</time>
      </trkpt>
      <trkpt lat="47.26521" lon="-1.65881">
        <ele>35</ele>
        <time>2023-11-13T19:16:48Z</time>
      </trkpt>
      <trkpt lat="47.26511" lon="-1.65907">
        <ele>33</ele>
        <time>2023-11-13T19:17:15Z</time>
      </trkpt>
      <trkpt lat="47.26514" lon="-1.65934">
        <ele>33</ele>
        <time>2023-11-13T19:17:40Z</time>
      </trkpt>
      <trkpt lat="47.26524" lon="-1.65958">
        <ele>34</ele>
        <time>2023-11-13T19:18:05Z</time>
      </trkpt>
      <trkpt lat="47.26543" lon="-1.65963">
        <ele>35</ele>
        <time>2023-11-13T19:18:31Z</time>
      </trkpt>
      <trkpt lat="47.266" lon="-1.65939">
        <ele>40</ele>
        <time>2023-11-13T19:19:50Z</time>
      </trkpt>
      <trkpt lat="47.2662" lon="-1.65938">
        <ele>43</ele>
        <time>2023-11-13T19:20:17Z</time>
      </trkpt>
      <trkpt lat="47.26639" lon="-1.65932">
        <ele>46</ele>
        <time>2023-11-13T19:20:43Z</time>
      </trkpt>
      <trkpt lat="47.26676" lon="-1.6591">
        <ele>49</ele>
        <time>2023-11-13T19:21:36Z</time>
      </trkpt>
      <trkpt lat="47.26696" lon="-1.65901">
        <ele>49</ele>
        <time>2023-11-13T19:22:04Z</time>
      </trkpt>
      <trkpt lat="47.26715" lon="-1.65896">
        <ele>48</ele>
        <time>2023-11-13T19:22:30Z</time>
      </trkpt>
      <trkpt lat="47.26754" lon="-1.65903">
        <ele>50</ele>
        <time>2023-11-13T19:23:22Z</time>
      </trkpt>
      <trkpt lat="47.26812" lon="-1.65893">
        <ele>48</ele>
        <time>2023-11-13T19:24:40Z</time>
      </trkpt>
      <trkpt lat="47.26832" lon="-1.65892">
        <ele>48</ele>
        <time>2023-11-13T19:25:07Z</time>
      </trkpt>
      <trkpt lat="47.26869" lon="-1.65878">
        <ele>49</ele>
        <time>2023-11-13T19:25:58Z</time>
      </trkpt>
      <trkpt lat="47.26886" lon="-1.65867">
        <ele>49</ele>
        <time>2023-11-13T19:26:23Z</time>
      </trkpt>
      <trkpt lat="47.26898" lon="-1.65844">
        <ele>49</ele>
        <time>2023-11-13T19:26:49Z</time>
      </trkpt>
      <trkpt lat="47.26898" lon="-1.65781">
        <ele>45</ele>
        <time>2023-11-13T19:27:46Z</time>
      </trkpt>
      <trkpt lat="47.26893" lon="-1.65752">
        <ele>43</ele>
        <time>2023-11-13T19:28:13Z</time>
      </trkpt>
      <trkpt lat="47.26878" lon="-1.6573">
        <ele>41</ele>
        <time>2023-11-13T19:28:41Z</time>
      </trkpt>
      <trkpt lat="47.26877" lon="-1.65701">
        <ele>39</ele>
        <time>2023-11-13T19:29:08Z</time>
      </trkpt>
      <trkpt lat="47.26901" lon="-1.65654">
        <ele>40</ele>
        <time>2023-11-13T19:30:01Z</time>
      </trkpt>
      <trkpt lat="47.26907" lon="-1.65626">
        <ele>40</ele>
        <time>2023-11-13T19:30:27Z</time>
      </trkpt>
      <trkpt lat="47.26925" lon="-1.65619">
        <ele>41</ele>
        <time>2023-11-13T19:30:52Z</time>
      </trkpt>
      <trkpt lat="47.26966" lon="-1.65636">
        <ele>44</ele>
        <time>2023-11-13T19:31:49Z</time>
      </trkpt>
      <trkpt lat="47.26985" lon="-1.65641">
        <ele>45</ele>
        <time>2023-11-13T19:32:15Z</time>
      </trkpt>
      <trkpt lat="47.27026" lon="-1.65646">
        <ele>47</ele>
        <time>2023-11-13T19:33:10Z</time>
      </trkpt>
      <trkpt lat="47.27045" lon="-1.65657">
        <ele>48</ele>
        <time>2023-11-13T19:33:37Z</time>
      </trkpt>
      <trkpt lat="47.27066" lon="-1.65657">
        <ele>49</ele>
        <time>2023-11-13T19:34:05Z</time>
      </trkpt>
      <trkpt lat="47.27087" lon="-1.65653">
        <ele>50</ele>
        <time>2023-11-13T19:34:33Z</time>
      </trkpt>
      <trkpt lat="47.27143" lon="-1.65634">
        <ele>51</ele>
        <time>2023-11-13T19:35:50Z</time>
      </trkpt>
      <trkpt lat="47.27161" lon="-1.65633">
        <ele>51</ele>
        <time>2023-11-13T19:36:14Z</time>
      </trkpt>
      <trkpt lat="47.27217" lon="-1.6564">
        <ele>53</ele>
        <time>2023-11-13T19:37:29Z</time>
      </trkpt>
      <trkpt lat="47.27237" lon="-1.65638">
        <ele>53</ele>
        <time>2023-11-13T19:37:56Z</time>
      </trkpt>
      <trkpt lat="47.27302" lon="-1.65719">
        <ele>55</ele>
        <time>2023-11-13T19:39:49Z</time>
      </trkpt>
      <trkpt lat="47.27331" lon="-1.65768">
        <ele>56</ele>
        <time>2023-11-13T19:40:48Z</time>
      </trkpt>
      <trkpt lat="47.27374" lon="-1.65826">
        <ele>58</ele>
        <time>2023-11-13T19:42:06Z</time>
      </trkpt>
      <trkpt lat="47.27419" lon="-1.65895">
        <ele>63</ele>
        <time>2023-11-13T19:43:33Z</time>
      </trkpt>
      <trkpt lat="47.27432" lon="-1.6592">
        <ele>64</ele>
        <time>2023-11-13T19:44:01Z</time>
      </trkpt>
      <trkpt lat="47.27448" lon="-1.65939">
        <ele>65</ele>
        <time>2023-11-13T19:44:29Z</time>
      </trkpt>
      <trkpt lat="47.27463" lon="-1.6592">
        <ele>65</ele>
        <time>2023-11-13T19:44:55Z</time>
      </trkpt>
      <trkpt lat="47.27481" lon="-1.65909">
        <ele>65</ele>
        <time>2023-11-13T19:45:21Z</time>
      </trkpt>
      <trkpt lat="47.275" lon="-1.65902">
        <ele>66</ele>
        <time>2023-11-13T19:45:47Z</time>
      </trkpt>
      <trkpt lat="47.27543" lon="-1.65878">
        <ele>66</ele>
        <time>2023-11-13T19:46:49Z</time>
      </trkpt>
      <trkpt lat="47.276" lon="-1.65852">
        <ele>65</ele>
        <time>2023-11-13T19:48:08Z</time>
      </trkpt>
      <trkpt lat="47.27621" lon="-1.65856">
        <ele>65</ele>
        <time>2023-11-13T19:48:36Z</time>
      </trkpt>
      <trkpt lat="47.27643" lon="-1.65864">
        <ele>65</ele>
        <time>2023-11-13T19:49:07Z</time>
      </trkpt>
      <trkpt lat="47.27678" lon="-1.65882">
        <ele>65</ele>
        <time>2023-11-13T19:49:56Z</time>
      </trkpt>
      <trkpt lat="47.27717" lon="-1.65896">
        <ele>65</ele>
        <time>2023-11-13T19:50:50Z</time>
      </trkpt>
      <trkpt lat="47.27735" lon="-1.65906">
        <ele>65</ele>
        <time>2023-11-13T19:51:15Z</time>
      </trkpt>
      <trkpt lat="47.2779" lon="-1.65944">
        <ele>65</ele>
        <time>2023-11-13T19:52:36Z</time>
      </trkpt>
      <trkpt lat="47.27826" lon="-1.65964">
        <ele>65</ele>
        <time>2023-11-13T19:53:28Z</time>
      </trkpt>
      <trkpt lat="47.27864" lon="-1.65982">
        <ele>65</ele>
        <time>2023-11-13T19:54:21Z</time>
      </trkpt>
      <trkpt lat="47.27904" lon="-1.65997">
        <ele>65</ele>
        <time>2023-11-13T19:55:16Z</time>
      </trkpt>
      <trkpt lat="47.27924" lon="-1.66011">
        <ele>65</ele>
        <time>2023-11-13T19:55:46Z</time>
      </trkpt>
      <trkpt lat="47.27938" lon="-1.66032">
        <ele>65</ele>
        <time>2023-11-13T19:56:12Z</time>
      </trkpt>
      <trkpt lat="47.27942" lon="-1.66061">
        <ele>65</ele>
        <time>2023-11-13T19:56:39Z</time>
      </trkpt>
      <trkpt lat="47.27951" lon="-1.66084">
        <ele>65</ele>
        <time>2023-11-13T19:57:03Z</time>
      </trkpt>
      <trkpt lat="47.2797" lon="-1.66094">
        <ele>64</ele>
        <time>2023-11-13T19:57:30Z</time>
      </trkpt>
      <trkpt lat="47.28009" lon="-1.66089">
        <ele>63</ele>
        <time>2023-11-13T19:58:22Z</time>
      </trkpt>
      <trkpt lat="47.28052" lon="-1.66087">
        <ele>63</ele>
        <time>2023-11-13T19:59:20Z</time>
      </trkpt>
      <trkpt lat="47.28129" lon="-1.66088">
        <ele>63</ele>
        <time>2023-11-13T20:01:02Z</time>
      </trkpt>
      <trkpt lat="47.28167" lon="-1.66092">
        <ele>64</ele>
        <time>2023-11-13T20:01:53Z</time>
      </trkpt>
      <trkpt lat="47.28224" lon="-1.66089">
        <ele>65</ele>
        <time>2023-11-13T20:03:09Z</time>
      </trkpt>
      <trkpt lat="47.28242" lon="-1.66085">
        <ele>65</ele>
        <time>2023-11-13T20:03:34Z</time>
      </trkpt>
      <trkpt lat="47.28327" lon="-1.66077">
        <ele>68</ele>
        <time>2023-11-13T20:05:27Z</time>
      </trkpt>
      <trkpt lat="47.28367" lon="-1.66081">
        <ele>68</ele>
        <time>2023-11-13T20:06:21Z</time>
      </trkpt>
      <trkpt lat="47.28451" lon="-1.66082">
        <ele>66</ele>
        <time>2023-11-13T20:08:13Z</time>
      </trkpt>
      <trkpt lat="47.28516" lon="-1.66075">
        <ele>65</ele>
        <time>2023-11-13T20:09:40Z</time>
      </trkpt>
      <trkpt lat="47.28535" lon="-1.66086">
        <ele>65</ele>
        <time>2023-11-13T20:10:07Z</time>
      </trkpt>
      <trkpt lat="47.28549" lon="-1.66105">
        <ele>65</ele>
        <time>2023-11-13T20:10:33Z</time>
      </trkpt>
      <trkpt lat="47.28565" lon="-1.66216">
        <ele>67</ele>
        <time>2023-11-13T20:12:15Z</time>
      </trkpt>
      <trkpt lat="47.28581" lon="-1.66367">
        <ele>69</ele>
        <time>2023-11-13T20:14:34Z</time>
      </trkpt>
      <trkpt lat="47.28596" lon="-1.66385">
        <ele>69</ele>
        <time>2023-11-13T20:14:59Z</time>
      </trkpt>
      <trkpt lat="47.28617" lon="-1.6638">
        <ele>69</ele>
        <time>2023-11-13T20:15:28Z</time>
      </trkpt>
      <trkpt lat="47.28638" lon="-1.66392">
        <ele>69</ele>
        <time>2023-11-13T20:15:58Z</time>
      </trkpt>
      <trkpt lat="47.28656" lon="-1.66384">
        <ele>70</ele>
        <time>2023-11-13T20:16:23Z</time>
      </trkpt>
      <trkpt lat="47.28669" lon="-1.66366">
        <ele>69</ele>
        <time>2023-11-13T20:16:47Z</time>
      </trkpt>
      <trkpt lat="47.2877" lon="-1.66219">
        <ele>68</ele>
        <time>2023-11-13T20:19:56Z</time>
      </trkpt>
      <trkpt lat="47.28795" lon="-1.66177">
        <ele>68</ele>
        <time>2023-11-13T20:20:47Z</time>
      </trkpt>
      <trkpt lat="47.28839" lon="-1.66115">
        <ele>67</ele>
        <time>2023-11-13T20:22:08Z</time>
      </trkpt>
      <trkpt lat="47.28869" lon="-1.66067">
        <ele>67</ele>
        <time>2023-11-13T20:23:07Z</time>
      </trkpt>
      <trkpt lat="47.28926" lon="-1.65984">
        <ele>67</ele>
        <time>2023-11-13T20:24:54Z</time>
      </trkpt>
      <trkpt lat="47.28948" lon="-1.65991">
        <ele>68</ele>
        <time>2023-11-13T20:25:24Z</time>
      </trkpt>
      <trkpt lat="47.28966" lon="-1.66011">
        <ele>68</ele>
        <time>2023-11-13T20:25:54Z</time>
      </trkpt>
      <trkpt lat="47.28996" lon="-1.66051">
        <ele>68</ele>
        <time>2023-11-13T20:26:48Z</time>
      </trkpt>
      <trkpt lat="47.29025" lon="-1.66095">
        <ele>68</ele>
        <time>2023-11-13T20:27:44Z</time>
      </trkpt>
      <trkpt lat="47.29043" lon="-1.66117">
        <ele>68</ele>
        <time>2023-11-13T20:28:15Z</time>
      </trkpt>
      <trkpt lat="47.29058" lon="-1.66143">
        <ele>68</ele>
        <time>2023-11-13T20:28:46Z</time>
      </trkpt>
      <trkpt lat="47.29114" lon="-1.66224">
        <ele>67</ele>
        <time>2023-11-13T20:30:30Z</time>
      </trkpt>
      <trkpt lat="47.29152" lon="-1.66211">
        <ele>67</ele>
        <time>2023-11-13T20:31:22Z</time>
      </trkpt>
      <trkpt lat="47.29172" lon="-1.66209">
        <ele>67</ele>
        <time>2023-11-13T20:31:49Z</time>
      </trkpt>
      <trkpt lat="47.29187" lon="-1.66228">
        <ele>67</ele>
        <time>2023-11-13T20:32:16Z</time>
      </trkpt>
      <trkpt lat="47.29199" lon="-1.6625">
        <ele>66</ele>
        <time>2023-11-13T20:32:41Z</time>
      </trkpt>
      <trkpt lat="47.29217" lon="-1.66269">
        <ele>66</ele>
        <time>2023-11-13T20:33:11Z</time>
      </trkpt>
      <trkpt lat="47.2923" lon="-1.66294">
        <ele>66</ele>
        <time>2023-11-13T20:33:39Z</time>
      </trkpt>
      <trkpt lat="47.29248" lon="-1.66378">
        <ele>66</ele>
        <time>2023-11-13T20:34:59Z</time>
      </trkpt>
      <trkpt lat="47.29259" lon="-1.66402">
        <ele>67</ele>
        <time>2023-11-13T20:35:25Z</time>
      </trkpt>
      <trkpt lat="47.29306" lon="-1.66468">
        <ele>68</ele>
        <time>2023-11-13T20:36:52Z</time>
      </trkpt>
      <trkpt lat="47.29343" lon="-1.66537">
        <ele>68</ele>
        <time>2023-11-13T20:38:11Z</time>
      </trkpt>
      <trkpt lat="47.29373" lon="-1.66611">
        <ele>68</ele>
        <time>2023-11-13T20:39:29Z</time>
      </trkpt>
      <trkpt lat="47.29388" lon="-1.66632">
        <ele>69</ele>
        <time>2023-11-13T20:39:57Z</time>
      </trkpt>
      <trkpt lat="47.29399" lon="-1.66657">
        <ele>69</ele>
        <time>2023-11-13T20:40:24Z</time>
      </trkpt>
      <trkpt lat="47.29405" lon="-1.66685">
        <ele>69</ele>
        <time>2023-11-13T20:40:51Z</time>
      </trkpt>
      <trkpt lat="47.29411" lon="-1.66837">
        <ele>70</ele>
        <time>2023-11-13T20:43:08Z</time>
      </trkpt>
      <trkpt lat="47.29412" lon="-1.66928">
        <ele>71</ele>
        <time>2023-11-13T20:44:31Z</time>
      </trkpt>
      <trkpt lat="47.29423" lon="-1.66958">
        <ele>72</ele>
        <time>2023-11-13T20:45:02Z</time>
      </trkpt>
      <trkpt lat="47.29449" lon="-1.67007">
        <ele>73</ele>
        <time>2023-11-13T20:45:58Z</time>
      </trkpt>
      <trkpt lat="47.29464" lon="-1.67103">
        <ele>74</ele>
        <time>2023-11-13T20:47:27Z</time>
      </trkpt>
      <trkpt lat="47.29473" lon="-1.67131">
        <ele>74</ele>
        <time>2023-11-13T20:47:55Z</time>
      </trkpt>
      <trkpt lat="47.29479" lon="-1.67162">
        <ele>73</ele>
        <time>2023-11-13T20:48:24Z</time>
      </trkpt>
      <trkpt lat="47.29491" lon="-1.67192">
        <ele>72</ele>
        <time>2023-11-13T20:48:56Z</time>
      </trkpt>
      <trkpt lat="47.29508" lon="-1.67254">
        <ele>70</ele>
        <time>2023-11-13T20:49:56Z</time>
      </trkpt>
      <trkpt lat="47.29534" lon="-1.67404">
        <ele>67</ele>
        <time>2023-11-13T20:52:16Z</time>
      </trkpt>
      <trkpt lat="47.29542" lon="-1.67435">
        <ele>66</ele>
        <time>2023-11-13T20:52:46Z</time>
      </trkpt>
      <trkpt lat="47.29574" lon="-1.67466">
        <ele>66</ele>
        <time>2023-11-13T20:53:38Z</time>
      </trkpt>
      <trkpt lat="47.29594" lon="-1.6748">
        <ele>65</ele>
        <time>2023-11-13T20:54:07Z</time>
      </trkpt>
      <trkpt lat="47.29612" lon="-1.67499">
        <ele>65</ele>
        <time>2023-11-13T20:54:37Z</time>
      </trkpt>
      <trkpt lat="47.29627" lon="-1.67525">
        <ele>64</ele>
        <time>2023-11-13T20:55:08Z</time>
      </trkpt>
      <trkpt lat="47.2966" lon="-1.67604">
        <ele>63</ele>
        <time>2023-11-13T20:56:32Z</time>
      </trkpt>
      <trkpt lat="47.29692" lon="-1.67638">
        <ele>62</ele>
        <time>2023-11-13T20:57:24Z</time>
      </trkpt>
      <trkpt lat="47.29712" lon="-1.67652">
        <ele>62</ele>
        <time>2023-11-13T20:57:54Z</time>
      </trkpt>
      <trkpt lat="47.29727" lon="-1.67667">
        <ele>62</ele>
        <time>2023-11-13T20:58:18Z</time>
      </trkpt>
      <trkpt lat="47.29755" lon="-1.67713">
        <ele>62</ele>
        <time>2023-11-13T20:59:14Z</time>
      </trkpt>
      <trkpt lat="47.29786" lon="-1.67785">
        <ele>64</ele>
        <time>2023-11-13T21:00:31Z</time>
      </trkpt>
      <trkpt lat="47.29813" lon="-1.67867">
        <ele>66</ele>
        <time>2023-11-13T21:01:53Z</time>
      </trkpt>
      <trkpt lat="47.29825" lon="-1.67892">
        <ele>67</ele>
        <time>2023-11-13T21:02:21Z</time>
      </trkpt>
      <trkpt lat="47.29833" lon="-1.67919">
        <ele>68</ele>
        <time>2023-11-13T21:02:48Z</time>
      </trkpt>
      <trkpt lat="47.29845" lon="-1.67945">
        <ele>68</ele>
        <time>2023-11-13T21:03:16Z</time>
      </trkpt>
      <trkpt lat="47.29886" lon="-1.68085">
        <ele>68</ele>
        <time>2023-11-13T21:05:34Z</time>
      </trkpt>
      <trkpt lat="47.29908" lon="-1.68131">
        <ele>68</ele>
        <time>2023-11-13T21:06:25Z</time>
      </trkpt>
      <trkpt lat="47.29927" lon="-1.68149">
        <ele>68</ele>
        <time>2023-11-13T21:06:55Z</time>
      </trkpt>
      <trkpt lat="47.29946" lon="-1.68162">
        <ele>69</ele>
        <time>2023-11-13T21:07:23Z</time>
      </trkpt>
      <trkpt lat="47.29966" lon="-1.68167">
        <ele>69</ele>
        <time>2023-11-13T21:07:50Z</time>
      </trkpt>
      <trkpt lat="47.29985" lon="-1.68165">
        <ele>70</ele>
        <time>2023-11-13T21:08:16Z</time>
      </trkpt>
      <trkpt lat="47.30005" lon="-1.68174">
        <ele>70</ele>
        <time>2023-11-13T21:08:44Z</time>
      </trkpt>
      <trkpt lat="47.30024" lon="-1.68188">
        <ele>70</ele>
        <time>2023-11-13T21:09:12Z</time>
      </trkpt>
      <trkpt lat="47.30055" lon="-1.68267">
        <ele>69</ele>
        <time>2023-11-13T21:10:35Z</time>
      </trkpt>
      <trkpt lat="47.3009" lon="-1.6828">
        <ele>69</ele>
        <time>2023-11-13T21:11:23Z</time>
      </trkpt>
      <trkpt lat="47.30105" lon="-1.68295">
        <ele>69</ele>
        <time>2023-11-13T21:11:47Z</time>
      </trkpt>
      <trkpt lat="47.30137" lon="-1.68373">
        <ele>69</ele>
        <time>2023-11-13T21:13:10Z</time>
      </trkpt>
      <trkpt lat="47.30149" lon="-1.68396">
        <ele>70</ele>
        <time>2023-11-13T21:13:36Z</time>
      </trkpt>
      <trkpt lat="47.30187" lon="-1.68408">
        <ele>71</ele>
        <time>2023-11-13T21:14:28Z</time>
      </trkpt>
      <trkpt lat="47.30242" lon="-1.68441">
        <ele>72</ele>
        <time>2023-11-13T21:15:47Z</time>
      </trkpt>
      <trkpt lat="47.30329" lon="-1.68561">
        <ele>73</ele>
        <time>2023-11-13T21:18:26Z</time>
      </trkpt>
      <trkpt lat="47.30341" lon="-1.68587">
        <ele>73</ele>
        <time>2023-11-13T21:18:54Z</time>
      </trkpt>
      <trkpt lat="47.30351" lon="-1.6865">
        <ele>73</ele>
        <time>2023-11-13T21:19:53Z</time>
      </trkpt>
      <trkpt lat="47.30369" lon="-1.68859">
        <ele>73</ele>
        <time>2023-11-13T21:23:04Z</time>
      </trkpt>
      <trkpt lat="47.30406" lon="-1.68957">
        <ele>73</ele>
        <time>2023-11-13T21:24:45Z</time>
      </trkpt>
      <trkpt lat="47.30395" lon="-1.68985">
        <ele>72</ele>
        <time>2023-11-13T21:25:14Z</time>
      </trkpt>
      <trkpt lat="47.30306" lon="-1.6914">
        <ele>72</ele>
        <time>2023-11-13T21:28:18Z</time>
      </trkpt>
      <trkpt lat="47.30249" lon="-1.69184">
        <ele>70</ele>
        <time>2023-11-13T21:29:44Z</time>
      </trkpt>
      <trkpt lat="47.30231" lon="-1.69187">
        <ele>69</ele>
        <time>2023-11-13T21:30:08Z</time>
      </trkpt>
      <trkpt lat="47.30214" lon="-1.69177">
        <ele>69</ele>
        <time>2023-11-13T21:30:33Z</time>
      </trkpt>
      <trkpt lat="47.30199" lon="-1.69124">
        <ele>69</ele>
        <time>2023-11-13T21:31:25Z</time>
      </trkpt>
      <trkpt lat="47.30197" lon="-1.69058">
        <ele>68</ele>
        <time>2023-11-13T21:32:24Z</time>
      </trkpt>
      <trkpt lat="47.30187" lon="-1.69004">
        <ele>67</ele>
        <time>2023-11-13T21:33:15Z</time>
      </trkpt>
      <trkpt lat="47.30181" lon="-1.68933">
        <ele>66</ele>
        <time>2023-11-13T21:34:20Z</time>
      </trkpt>
      <trkpt lat="47.30163" lon="-1.6893">
        <ele>65</ele>
        <time>2023-11-13T21:34:44Z</time>
      </trkpt>
      <trkpt lat="47.30155" lon="-1.68906">
        <ele>65</ele>
        <time>2023-11-13T21:35:08Z</time>
      </trkpt>
      <trkpt lat="47.30141" lon="-1.68883">
        <ele>65</ele>
        <time>2023-11-13T21:35:36Z</time>
      </trkpt>
      <trkpt lat="47.30082" lon="-1.68802">
        <ele>64</ele>
        <time>2023-11-13T21:37:24Z</time>
      </trkpt>
      <trkpt lat="47.30069" lon="-1.68778">
        <ele>65</ele>
        <time>2023-11-13T21:37:51Z</time>
      </trkpt>
      <trkpt lat="47.3005" lon="-1.68726">
        <ele>65</ele>
        <time>2023-11-13T21:38:45Z</time>
      </trkpt>
      <trkpt lat="47.30034" lon="-1.68671">
        <ele>65</ele>
        <time>2023-11-13T21:39:39Z</time>
      </trkpt>
      <trkpt lat="47.30007" lon="-1.68592">
        <ele>64</ele>
        <time>2023-11-13T21:40:59Z</time>
      </trkpt>
      <trkpt lat="47.29994" lon="-1.68564">
        <ele>64</ele>
        <time>2023-11-13T21:41:30Z</time>
      </trkpt>
      <trkpt lat="47.29953" lon="-1.68499">
        <ele>66</ele>
        <time>2023-11-13T21:42:50Z</time>
      </trkpt>
      <trkpt lat="47.29931" lon="-1.68444">
        <ele>66</ele>
        <time>2023-11-13T21:43:48Z</time>
      </trkpt>
      <trkpt lat="47.29918" lon="-1.6842">
        <ele>66</ele>
        <time>2023-11-13T21:44:16Z</time>
      </trkpt>
      <trkpt lat="47.29876" lon="-1.68355">
        <ele>67</ele>
        <time>2023-11-13T21:45:37Z</time>
      </trkpt>
      <trkpt lat="47.29859" lon="-1.6834">
        <ele>67</ele>
        <time>2023-11-13T21:46:03Z</time>
      </trkpt>
      <trkpt lat="47.2984" lon="-1.68343">
        <ele>67</ele>
        <time>2023-11-13T21:46:29Z</time>
      </trkpt>
      <trkpt lat="47.29794" lon="-1.684">
        <ele>67</ele>
        <time>2023-11-13T21:47:49Z</time>
      </trkpt>
      <trkpt lat="47.29775" lon="-1.68417">
        <ele>67</ele>
        <time>2023-11-13T21:48:19Z</time>
      </trkpt>
      <trkpt lat="47.29754" lon="-1.68428">
        <ele>67</ele>
        <time>2023-11-13T21:48:49Z</time>
      </trkpt>
      <trkpt lat="47.29719" lon="-1.68458">
        <ele>67</ele>
        <time>2023-11-13T21:49:43Z</time>
      </trkpt>
      <trkpt lat="47.29702" lon="-1.68477">
        <ele>67</ele>
        <time>2023-11-13T21:50:11Z</time>
      </trkpt>
      <trkpt lat="47.29646" lon="-1.68562">
        <ele>67</ele>
        <time>2023-11-13T21:51:58Z</time>
      </trkpt>
      <trkpt lat="47.29613" lon="-1.68604">
        <ele>66</ele>
        <time>2023-11-13T21:52:56Z</time>
      </trkpt>
      <trkpt lat="47.29565" lon="-1.68654">
        <ele>66</ele>
        <time>2023-11-13T21:54:15Z</time>
      </trkpt>
      <trkpt lat="47.29549" lon="-1.68678">
        <ele>66</ele>
        <time>2023-11-13T21:54:45Z</time>
      </trkpt>
      <trkpt lat="47.2954" lon="-1.68706">
        <ele>66</ele>
        <time>2023-11-13T21:55:13Z</time>
      </trkpt>
      <trkpt lat="47.2952" lon="-1.68721">
        <ele>65</ele>
        <time>2023-11-13T21:55:43Z</time>
      </trkpt>
      <trkpt lat="47.29474" lon="-1.68774">
        <ele>65</ele>
        <time>2023-11-13T21:57:01Z</time>
      </trkpt>
      <trkpt lat="47.29441" lon="-1.68803">
        <ele>66</ele>
        <time>2023-11-13T21:57:52Z</time>
      </trkpt>
      <trkpt lat="47.29425" lon="-1.68821">
        <ele>67</ele>
        <time>2023-11-13T21:58:19Z</time>
      </trkpt>
      <trkpt lat="47.29407" lon="-1.68833">
        <ele>68</ele>
        <time>2023-11-13T21:58:46Z</time>
      </trkpt>
      <trkpt lat="47.29375" lon="-1.68869">
        <ele>68</ele>
        <time>2023-11-13T21:59:39Z</time>
      </trkpt>
      <trkpt lat="47.29361" lon="-1.68891">
        <ele>69</ele>
        <time>2023-11-13T22:00:07Z</time>
      </trkpt>
      <trkpt lat="47.29278" lon="-1.68972">
        <ele>65</ele>
        <time>2023-11-13T22:02:20Z</time>
      </trkpt>
      <trkpt lat="47.29198" lon="-1.69018">
        <ele>63</ele>
        <time>2023-11-13T22:04:14Z</time>
      </trkpt>
      <trkpt lat="47.29178" lon="-1.69025">
        <ele>62</ele>
        <time>2023-11-13T22:04:42Z</time>
      </trkpt>
      <trkpt lat="47.29155" lon="-1.69021">
        <ele>61</ele>
        <time>2023-11-13T22:05:12Z</time>
      </trkpt>
      <trkpt lat="47.29095" lon="-1.69003">
        <ele>62</ele>
        <time>2023-11-13T22:06:34Z</time>
      </trkpt>
      <trkpt lat="47.29072" lon="-1.69001">
        <ele>61</ele>
        <time>2023-11-13T22:07:05Z</time>
      </trkpt>
      <trkpt lat="47.2903" lon="-1.69001">
        <ele>59</ele>
        <time>2023-11-13T22:08:01Z</time>
      </trkpt>
      <trkpt lat="47.28945" lon="-1.69011">
        <ele>54</ele>
        <time>2023-11-13T22:09:55Z</time>
      </trkpt>
      <trkpt lat="47.28927" lon="-1.68995">
        <ele>53</ele>
        <time>2023-11-13T22:10:23Z</time>
      </trkpt>
      <trkpt lat="47.28917" lon="-1.69018">
        <ele>52</ele>
        <time>2023-11-13T22:10:48Z</time>
      </trkpt>
      <trkpt lat="47.289" lon="-1.6904">
        <ele>53</ele>
        <time>2023-11-13T22:11:18Z</time>
      </trkpt>
      <trkpt lat="47.28881" lon="-1.6904">
        <ele>54</ele>
        <time>2023-11-13T22:11:43Z</time>
      </trkpt>
      <trkpt lat="47.28863" lon="-1.69022">
        <ele>54</ele>
        <time>2023-11-13T22:12:12Z</time>
      </trkpt>
      <trkpt lat="47.28844" lon="-1.69026">
        <ele>55</ele>
        <time>2023-11-13T22:12:38Z</time>
      </trkpt>
      <trkpt lat="47.28827" lon="-1.69043">
        <ele>55</ele>
        <time>2023-11-13T22:13:05Z</time>
      </trkpt>
      <trkpt lat="47.28814" lon="-1.69067">
        <ele>56</ele>
        <time>2023-11-13T22:13:33Z</time>
      </trkpt>
      <trkpt lat="47.288" lon="-1.69083">
        <ele>57</ele>
        <time>2023-11-13T22:13:57Z</time>
      </trkpt>
      <trkpt lat="47.28788" lon="-1.69108">
        <ele>58</ele>
        <time>2023-11-13T22:14:24Z</time>
      </trkpt>
      <trkpt lat="47.28757" lon="-1.69152">
        <ele>61</ele>
        <time>2023-11-13T22:15:22Z</time>
      </trkpt>
      <trkpt lat="47.28747" lon="-1.69174">
        <ele>62</ele>
        <time>2023-11-13T22:15:46Z</time>
      </trkpt>
      <trkpt lat="47.28724" lon="-1.69177">
        <ele>62</ele>
        <time>2023-11-13T22:16:17Z</time>
      </trkpt>
      <trkpt lat="47.28648" lon="-1.6922">
        <ele>60</ele>
        <time>2023-11-13T22:18:05Z</time>
      </trkpt>
      <trkpt lat="47.28642" lon="-1.69247">
        <ele>61</ele>
        <time>2023-11-13T22:18:31Z</time>
      </trkpt>
      <trkpt lat="47.28626" lon="-1.69261">
        <ele>61</ele>
        <time>2023-11-13T22:18:56Z</time>
      </trkpt>
      <trkpt lat="47.28589" lon="-1.69276">
        <ele>61</ele>
        <time>2023-11-13T22:19:47Z</time>
      </trkpt>
      <trkpt lat="47.28549" lon="-1.69283">
        <ele>60</ele>
        <time>2023-11-13T22:20:41Z</time>
      </trkpt>
      <trkpt lat="47.2853" lon="-1.69282">
        <ele>60</ele>
        <time>2023-11-13T22:21:06Z</time>
      </trkpt>
      <trkpt lat="47.28508" lon="-1.69274">
        <ele>59</ele>
        <time>2023-11-13T22:21:36Z</time>
      </trkpt>
      <trkpt lat="47.28447" lon="-1.69262">
        <ele>56</ele>
        <time>2023-11-13T22:22:58Z</time>
      </trkpt>
      <trkpt lat="47.28427" lon="-1.69276">
        <ele>55</ele>
        <time>2023-11-13T22:23:28Z</time>
      </trkpt>
      <trkpt lat="47.28402" lon="-1.69453">
        <ele>56</ele>
        <time>2023-11-13T22:26:12Z</time>
      </trkpt>
      <trkpt lat="47.28388" lon="-1.69534">
        <ele>58</ele>
        <time>2023-11-13T22:27:27Z</time>
      </trkpt>
      <trkpt lat="47.28386" lon="-1.69564">
        <ele>58</ele>
        <time>2023-11-13T22:27:55Z</time>
      </trkpt>
      <trkpt lat="47.28388" lon="-1.69624">
        <ele>59</ele>
        <time>2023-11-13T22:28:49Z</time>
      </trkpt>
      <trkpt lat="47.28383" lon="-1.69654">
        <ele>59</ele>
        <time>2023-11-13T22:29:17Z</time>
      </trkpt>
      <trkpt lat="47.2834" lon="-1.69758">
        <ele>61</ele>
        <time>2023-11-13T22:31:07Z</time>
      </trkpt>
      <trkpt lat="47.28319" lon="-1.69839">
        <ele>64</ele>
        <time>2023-11-13T22:32:26Z</time>
      </trkpt>
      <trkpt lat="47.283" lon="-1.69894">
        <ele>65</ele>
        <time>2023-11-13T22:33:22Z</time>
      </trkpt>
      <trkpt lat="47.28289" lon="-1.69921">
        <ele>65</ele>
        <time>2023-11-13T22:33:50Z</time>
      </trkpt>
      <trkpt lat="47.28276" lon="-1.69945">
        <ele>66</ele>
        <time>2023-11-13T22:34:18Z</time>
      </trkpt>
      <trkpt lat="47.28267" lon="-1.6997">
        <ele>66</ele>
        <time>2023-11-13T22:34:43Z</time>
      </trkpt>
      <trkpt lat="47.2825" lon="-1.7002">
        <ele>66</ele>
        <time>2023-11-13T22:35:34Z</time>
      </trkpt>
      <trkpt lat="47.28227" lon="-1.70104">
        <ele>66</ele>
        <time>2023-11-13T22:36:56Z</time>
      </trkpt>
      <trkpt lat="47.28208" lon="-1.70107">
        <ele>66</ele>
        <time>2023-11-13T22:37:22Z</time>
      </trkpt>
      <trkpt lat="47.28135" lon="-1.70081">
        <ele>66</ele>
        <time>2023-11-13T22:39:02Z</time>
      </trkpt>
      <trkpt lat="47.28111" lon="-1.70075">
        <ele>66</ele>
        <time>2023-11-13T22:39:34Z</time>
      </trkpt>
      <trkpt lat="47.28088" lon="-1.70073">
        <ele>67</ele>
        <time>2023-11-13T22:40:05Z</time>
      </trkpt>
      <trkpt lat="47.28066" lon="-1.70117">
        <ele>68</ele>
        <time>2023-11-13T22:40:55Z</time>
      </trkpt>
      <trkpt lat="47.28002" lon="-1.70274">
        <ele>68</ele>
        <time>2023-11-13T22:43:40Z</time>
      </trkpt>
      <trkpt lat="47.27986" lon="-1.70293">
        <ele>68</ele>
        <time>2023-11-13T22:44:08Z</time>
      </trkpt>
      <trkpt lat="47.27918" lon="-1.70189">
        <ele>67</ele>
        <time>2023-11-13T22:46:19Z</time>
      </trkpt>
      <trkpt lat="47.27886" lon="-1.70157">
        <ele>69</ele>
        <time>2023-11-13T22:47:10Z</time>
      </trkpt>
      <trkpt lat="47.27875" lon="-1.7013">
        <ele>70</ele>
        <time>2023-11-13T22:47:39Z</time>
      </trkpt>
      <trkpt lat="47.27862" lon="-1.70071">
        <ele>70</ele>
        <time>2023-11-13T22:48:35Z</time>
      </trkpt>
      <trkpt lat="47.27863" lon="-1.70042">
        <ele>69</ele>
        <time>2023-11-13T22:49:01Z</time>
      </trkpt>
      <trkpt lat="47.27853" lon="-1.70015">
        <ele>68</ele>
        <time>2023-11-13T22:49:29Z</time>
      </trkpt>
      <trkpt lat="47.27847" lon="-1.69987">
        <ele>67</ele>
        <time>2023-11-13T22:49:56Z</time>
      </trkpt>
      <trkpt lat="47.27844" lon="-1.69956">
        <ele>66</ele>
        <time>2023-11-13T22:50:24Z</time>
      </trkpt>
      <trkpt lat="47.2783" lon="-1.69895">
        <ele>64</ele>
        <time>2023-11-13T22:51:22Z</time>
      </trkpt>
      <trkpt lat="47.27811" lon="-1.69705">
        <ele>60</ele>
        <time>2023-11-13T22:54:16Z</time>
      </trkpt>
      <trkpt lat="47.2782" lon="-1.69681">
        <ele>60</ele>
        <time>2023-11-13T22:54:41Z</time>
      </trkpt>
      <trkpt lat="47.27813" lon="-1.6965">
        <ele>59</ele>
        <time>2023-11-13T22:55:10Z</time>
      </trkpt>
      <trkpt lat="47.27812" lon="-1.69678">
        <ele>60</ele>
        <time>2023-11-13T22:55:36Z</time>
      </trkpt>
      <trkpt lat="47.27797" lon="-1.69629">
        <ele>58</ele>
        <time>2023-11-13T22:56:25Z</time>
      </trkpt>
      <trkpt lat="47.27785" lon="-1.69602">
        <ele>58</ele>
        <time>2023-11-13T22:56:54Z</time>
      </trkpt>
      <trkpt lat="47.27779" lon="-1.69573">
        <ele>57</ele>
        <time>2023-11-13T22:57:21Z</time>
      </trkpt>
      <trkpt lat="47.27774" lon="-1.69513">
        <ele>55</ele>
        <time>2023-11-13T22:58:16Z</time>
      </trkpt>
      <trkpt lat="47.27774" lon="-1.69451">
        <ele>54</ele>
        <time>2023-11-13T22:59:12Z</time>
      </trkpt>
      <trkpt lat="47.2778" lon="-1.6939">
        <ele>52</ele>
        <time>2023-11-13T23:00:08Z</time>
      </trkpt>
      <trkpt lat="47.27779" lon="-1.69363">
        <ele>51</ele>
        <time>2023-11-13T23:00:32Z</time>
      </trkpt>
      <trkpt lat="47.27775" lon="-1.69336">
        <ele>50</ele>
        <time>2023-11-13T23:00:57Z</time>
      </trkpt>
      <trkpt lat="47.27767" lon="-1.69307">
        <ele>50</ele>
        <time>2023-11-13T23:01:26Z</time>
      </trkpt>
      <trkpt lat="47.27751" lon="-1.69285">
        <ele>49</ele>
        <time>2023-11-13T23:01:55Z</time>
      </trkpt>
      <trkpt lat="47.27731" lon="-1.69272">
        <ele>50</ele>
        <time>2023-11-13T23:02:24Z</time>
      </trkpt>
      <trkpt lat="47.27713" lon="-1.69274">
        <ele>50</ele>
        <time>2023-11-13T23:02:48Z</time>
      </trkpt>
      <trkpt lat="47.27693" lon="-1.69273">
        <ele>50</ele>
        <time>2023-11-13T23:03:15Z</time>
      </trkpt>
      <trkpt lat="47.27676" lon="-1.69266">
        <ele>51</ele>
        <time>2023-11-13T23:03:38Z</time>
      </trkpt>
      <trkpt lat="47.27658" lon="-1.69254">
        <ele>51</ele>
        <time>2023-11-13T23:04:05Z</time>
      </trkpt>
      <trkpt lat="47.27598" lon="-1.69198">
        <ele>55</ele>
        <time>2023-11-13T23:05:40Z</time>
      </trkpt>
      <trkpt lat="47.27579" lon="-1.69185">
        <ele>56</ele>
        <time>2023-11-13T23:06:08Z</time>
      </trkpt>
      <trkpt lat="47.2756" lon="-1.69178">
        <ele>56</ele>
        <time>2023-11-13T23:06:34Z</time>
      </trkpt>
      <trkpt lat="47.27543" lon="-1.69128">
        <ele>59</ele>
        <time>2023-11-13T23:07:24Z</time>
      </trkpt>
      <trkpt lat="47.27524" lon="-1.69122">
        <ele>60</ele>
        <time>2023-11-13T23:07:50Z</time>
      </trkpt>
      <trkpt lat="47.27432" lon="-1.69024">
        <ele>63</ele>
        <time>2023-11-13T23:10:22Z</time>
      </trkpt>
      <trkpt lat="47.27374" lon="-1.68988">
        <ele>64</ele>
        <time>2023-11-13T23:11:46Z</time>
      </trkpt>
      <trkpt lat="47.27317" lon="-1.68957">
        <ele>64</ele>
        <time>2023-11-13T23:13:07Z</time>
      </trkpt>
      <trkpt lat="47.27302" lon="-1.68943">
        <ele>65</ele>
        <time>2023-11-13T23:13:30Z</time>
      </trkpt>
      <trkpt lat="47.27328" lon="-1.68899">
        <ele>64</ele>
        <time>2023-11-13T23:14:23Z</time>
      </trkpt>
      <trkpt lat="47.27378" lon="-1.6884">
        <ele>62</ele>
        <time>2023-11-13T23:15:49Z</time>
      </trkpt>
      <trkpt lat="47.27406" lon="-1.68797">
        <ele>59</ele>
        <time>2023-11-13T23:16:43Z</time>
      </trkpt>
      <trkpt lat="47.27421" lon="-1.6878">
        <ele>59</ele>
        <time>2023-11-13T23:17:08Z</time>
      </trkpt>
      <trkpt lat="47.27438" lon="-1.68787">
        <ele>59</ele>
        <time>2023-11-13T23:17:32Z</time>
      </trkpt>
      <trkpt lat="47.27477" lon="-1.6881">
        <ele>60</ele>
        <time>2023-11-13T23:18:28Z</time>
      </trkpt>
      <trkpt lat="47.27495" lon="-1.68818">
        <ele>61</ele>
        <time>2023-11-13T23:18:53Z</time>
      </trkpt>
      <trkpt lat="47.27518" lon="-1.68824">
        <ele>61</ele>
        <time>2023-11-13T23:19:24Z</time>
      </trkpt>
      <trkpt lat="47.27542" lon="-1.68819">
        <ele>61</ele>
        <time>2023-11-13T23:19:56Z</time>
      </trkpt>
      <trkpt lat="47.27563" lon="-1.68807">
        <ele>61</ele>
        <time>2023-11-13T23:20:26Z</time>
      </trkpt>
      <trkpt lat="47.27581" lon="-1.68792">
        <ele>60</ele>
        <time>2023-11-13T23:20:54Z</time>
      </trkpt>
      <trkpt lat="47.27601" lon="-1.68784">
        <ele>59</ele>
        <time>2023-11-13T23:21:21Z</time>
      </trkpt>
      <trkpt lat="47.27638" lon="-1.68796">
        <ele>58</ele>
        <time>2023-11-13T23:22:12Z</time>
      </trkpt>
      <trkpt lat="47.27655" lon="-1.68806">
        <ele>58</ele>
        <time>2023-11-13T23:22:36Z</time>
      </trkpt>
      <trkpt lat="47.2769" lon="-1.68775">
        <ele>55</ele>
        <time>2023-11-13T23:23:31Z</time>
      </trkpt>
      <trkpt lat="47.27708" lon="-1.68768">
        <ele>55</ele>
        <time>2023-11-13T23:23:56Z</time>
      </trkpt>
      <trkpt lat="47.2775" lon="-1.68778">
        <ele>56</ele>
        <time>2023-11-13T23:24:53Z</time>
      </trkpt>
      <trkpt lat="47.27768" lon="-1.68785">
        <ele>55</ele>
        <time>2023-11-13T23:25:17Z</time>
      </trkpt>
      <trkpt lat="47.27783" lon="-1.68767">
        <ele>53</ele>
        <time>2023-11-13T23:25:43Z</time>
      </trkpt>
      <trkpt lat="47.27772" lon="-1.68745">
        <ele>52</ele>
        <time>2023-11-13T23:26:08Z</time>
      </trkpt>
      <trkpt lat="47.2777" lon="-1.68718">
        <ele>50</ele>
        <time>2023-11-13T23:26:33Z</time>
      </trkpt>
      <trkpt lat="47.27758" lon="-1.68697">
        <ele>48</ele>
        <time>2023-11-13T23:26:57Z</time>
      </trkpt>
      <trkpt lat="47.27737" lon="-1.68689">
        <ele>48</ele>
        <time>2023-11-13T23:27:26Z</time>
      </trkpt>
      <trkpt lat="47.27699" lon="-1.68684">
        <ele>50</ele>
        <time>2023-11-13T23:28:17Z</time>
      </trkpt>
      <trkpt lat="47.27678" lon="-1.68638">
        <ele>53</ele>
        <time>2023-11-13T23:29:07Z</time>
      </trkpt>
      <trkpt lat="47.27695" lon="-1.68617">
        <ele>54</ele>
        <time>2023-11-13T23:29:37Z</time>
      </trkpt>
      <trkpt lat="47.27732" lon="-1.68596">
        <ele>52</ele>
        <time>2023-11-13T23:30:30Z</time>
      </trkpt>
      <trkpt lat="47.27746" lon="-1.68571">
        <ele>53</ele>
        <time>2023-11-13T23:30:59Z</time>
      </trkpt>
      <trkpt lat="47.27751" lon="-1.68544">
        <ele>54</ele>
        <time>2023-11-13T23:31:25Z</time>
      </trkpt>
      <trkpt lat="47.27744" lon="-1.68514">
        <ele>57</ele>
        <time>2023-11-13T23:31:53Z</time>
      </trkpt>
      <trkpt lat="47.27727" lon="-1.685">
        <ele>58</ele>
        <time>2023-11-13T23:32:19Z</time>
      </trkpt>
      <trkpt lat="47.27696" lon="-1.68461">
        <ele>60</ele>
        <time>2023-11-13T23:33:14Z</time>
      </trkpt>
      <trkpt lat="47.27674" lon="-1.68408">
        <ele>60</ele>
        <time>2023-11-13T23:34:10Z</time>
      </trkpt>
      <trkpt lat="47.27669" lon="-1.68347">
        <ele>62</ele>
        <time>2023-11-13T23:35:06Z</time>
      </trkpt>
      <trkpt lat="47.27663" lon="-1.6832">
        <ele>62</ele>
        <time>2023-11-13T23:35:31Z</time>
      </trkpt>
      <trkpt lat="47.27652" lon="-1.68234">
        <ele>63</ele>
        <time>2023-11-13T23:36:51Z</time>
      </trkpt>
      <trkpt lat="47.2763" lon="-1.68181">
        <ele>62</ele>
        <time>2023-11-13T23:37:47Z</time>
      </trkpt>
      <trkpt lat="47.27625" lon="-1.68149">
        <ele>62</ele>
        <time>2023-11-13T23:38:17Z</time>
      </trkpt>
      <trkpt lat="47.27633" lon="-1.68123">
        <ele>61</ele>
        <time>2023-11-13T23:38:42Z</time>
      </trkpt>
      <trkpt lat="47.27635" lon="-1.68096">
        <ele>61</ele>
        <time>2023-11-13T23:39:07Z</time>
      </trkpt>
      <trkpt lat="47.27627" lon="-1.68036">
        <ele>62</ele>
        <time>2023-11-13T23:40:02Z</time>
      </trkpt>
      <trkpt lat="47.27613" lon="-1.68018">
        <ele>62</ele>
        <time>2023-11-13T23:40:27Z</time>
      </trkpt>
      <trkpt lat="47.27595" lon="-1.68019">
        <ele>62</ele>
        <time>2023-11-13T23:40:51Z</time>
      </trkpt>
      <trkpt lat="47.27575" lon="-1.68016">
        <ele>63</ele>
        <time>2023-11-13T23:41:18Z</time>
      </trkpt>
      <trkpt lat="47.27555" lon="-1.68">
        <ele>63</ele>
        <time>2023-11-13T23:41:48Z</time>
      </trkpt>
      <trkpt lat="47.27531" lon="-1.6795">
        <ele>63</ele>
        <time>2023-11-13T23:42:44Z</time>
      </trkpt>
      <trkpt lat="47.27518" lon="-1.67929">
        <ele>64</ele>
        <time>2023-11-13T23:43:10Z</time>
      </trkpt>
      <trkpt lat="47.27509" lon="-1.67901">
        <ele>64</ele>
        <time>2023-11-13T23:43:38Z</time>
      </trkpt>
      <trkpt lat="47.275" lon="-1.67816">
        <ele>66</ele>
        <time>2023-11-13T23:44:56Z</time>
      </trkpt>
      <trkpt lat="47.27495" lon="-1.67786">
        <ele>66</ele>
        <time>2023-11-13T23:45:24Z</time>
      </trkpt>
      <trkpt lat="47.27486" lon="-1.67759">
        <ele>65</ele>
        <time>2023-11-13T23:45:51Z</time>
      </trkpt>
      <trkpt lat="47.27457" lon="-1.67722">
        <ele>64</ele>
        <time>2023-11-13T23:46:42Z</time>
      </trkpt>
      <trkpt lat="47.27444" lon="-1.67695">
        <ele>64</ele>
        <time>2023-11-13T23:47:12Z</time>
      </trkpt>
      <trkpt lat="47.2744" lon="-1.67637">
        <ele>65</ele>
        <time>2023-11-13T23:48:05Z</time>
      </trkpt>
      <trkpt lat="47.27424" lon="-1.67583">
        <ele>65</ele>
        <time>2023-11-13T23:48:58Z</time>
      </trkpt>
      <trkpt lat="47.27436" lon="-1.67562">
        <ele>65</ele>
        <time>2023-11-13T23:49:23Z</time>
      </trkpt>
      <trkpt lat="47.27469" lon="-1.67527">
        <ele>66</ele>
        <time>2023-11-13T23:50:17Z</time>
      </trkpt>
      <trkpt lat="47.27483" lon="-1.67507">
        <ele>66</ele>
        <time>2023-11-13T23:50:43Z</time>
      </trkpt>
      <trkpt lat="47.27467" lon="-1.67524">
        <ele>66</ele>
        <time>2023-11-13T23:51:10Z</time>
      </trkpt>
      <trkpt lat="47.27433" lon="-1.67568">
        <ele>65</ele>
        <time>2023-11-13T23:52:10Z</time>
      </trkpt>
      <trkpt lat="47.27414" lon="-1.67574">
        <ele>65</ele>
        <time>2023-11-13T23:52:36Z</time>
      </trkpt>
      <trkpt lat="47.27404" lon="-1.6755">
        <ele>65</ele>
        <time>2023-11-13T23:53:01Z</time>
      </trkpt>
      <trkpt lat="47.2739" lon="-1.6753">
        <ele>64</ele>
        <time>2023-11-13T23:53:27Z</time>
      </trkpt>
      <trkpt lat="47.27371" lon="-1.67474">
        <ele>63</ele>
        <time>2023-11-13T23:54:24Z</time>
      </trkpt>
      <trkpt lat="47.2736" lon="-1.6745">
        <ele>62</ele>
        <time>2023-11-13T23:54:50Z</time>
      </trkpt>
      <trkpt lat="47.27352" lon="-1.67418">
        <ele>61</ele>
        <time>2023-11-13T23:55:21Z</time>
      </trkpt>
      <trkpt lat="47.27348" lon="-1.67387">
        <ele>61</ele>
        <time>2023-11-13T23:55:50Z</time>
      </trkpt>
      <trkpt lat="47.27347" lon="-1.67326">
        <ele>60</ele>
        <time>2023-11-13T23:56:45Z</time>
      </trkpt>
      <trkpt lat="47.27331" lon="-1.67231">
        <ele>63</ele>
        <time>2023-11-13T23:58:14Z</time>
      </trkpt>
      <trkpt lat="47.27344" lon="-1.67208">
        <ele>65</ele>
        <time>2023-11-13T23:58:41Z</time>
      </trkpt>
      <trkpt lat="47.27361" lon="-1.67199">
        <ele>66</ele>
        <time>2023-11-13T23:59:05Z</time>
      </trkpt>
      <trkpt lat="47.27374" lon="-1.67177">
        <ele>67</ele>
        <time>2023-11-13T23:59:31Z</time>
      </trkpt>
      <trkpt lat="47.27394" lon="-1.67177">
        <ele>68</ele>
        <time>2023-11-13T23:59:58Z</time>
      </trkpt>
      <trkpt lat="47.27413" lon="-1.67158">
        <ele>68</ele>
        <time>2023-11-14T00:00:29Z</time>
      </trkpt>
      <trkpt lat="47.27452" lon="-1.6713">
        <ele>66</ele>
        <time>2023-11-14T00:01:26Z</time>
      </trkpt>
      <trkpt lat="47.27503" lon="-1.6708">
        <ele>65</ele>
        <time>2023-11-14T00:02:48Z</time>
      </trkpt>
      <trkpt lat="47.27516" lon="-1.67058">
        <ele>66</ele>
        <time>2023-11-14T00:03:15Z</time>
      </trkpt>
      <trkpt lat="47.27496" lon="-1.66981">
        <ele>67</ele>
        <time>2023-11-14T00:04:29Z</time>
      </trkpt>
      <trkpt lat="47.27457" lon="-1.66877">
        <ele>65</ele>
        <time>2023-11-14T00:06:17Z</time>
      </trkpt>
      <trkpt lat="47.27445" lon="-1.66854">
        <ele>65</ele>
        <time>2023-11-14T00:06:43Z</time>
      </trkpt>
      <trkpt lat="47.27418" lon="-1.66808">
        <ele>65</ele>
        <time>2023-11-14T00:07:38Z</time>
      </trkpt>
      <trkpt lat="47.27404" lon="-1.6679">
        <ele>64</ele>
        <time>2023-11-14T00:08:03Z</time>
      </trkpt>
      <trkpt lat="47.27374" lon="-1.66742">
        <ele>63</ele>
        <time>2023-11-14T00:09:02Z</time>
      </trkpt>
      <trkpt lat="47.27344" lon="-1.66704">
        <ele>62</ele>
        <time>2023-11-14T00:09:55Z</time>
      </trkpt>
      <trkpt lat="47.27316" lon="-1.66657">
        <ele>61</ele>
        <time>2023-11-14T00:10:51Z</time>
      </trkpt>
      <trkpt lat="47.273" lon="-1.66639">
        <ele>61</ele>
        <time>2023-11-14T00:11:18Z</time>
      </trkpt>
      <trkpt lat="47.27278" lon="-1.66638">
        <ele>62</ele>
        <time>2023-11-14T00:11:48Z</time>
      </trkpt>
      <trkpt lat="47.27259" lon="-1.66632">
        <ele>62</ele>
        <time>2023-11-14T00:12:14Z</time>
      </trkpt>
      <trkpt lat="47.272" lon="-1.66622">
        <ele>61</ele>
        <time>2023-11-14T00:13:33Z</time>
      </trkpt>
      <trkpt lat="47.27182" lon="-1.66616">
        <ele>60</ele>
        <time>2023-11-14T00:13:57Z</time>
      </trkpt>
      <trkpt lat="47.27164" lon="-1.66606">
        <ele>60</ele>
        <time>2023-11-14T00:14:23Z</time>
      </trkpt>
      <trkpt lat="47.27112" lon="-1.66565">
        <ele>58</ele>
        <time>2023-11-14T00:15:42Z</time>
      </trkpt>
      <trkpt lat="47.27077" lon="-1.66541">
        <ele>57</ele>
        <time>2023-11-14T00:16:33Z</time>
      </trkpt>
      <trkpt lat="47.27018" lon="-1.66511">
        <ele>57</ele>
        <time>2023-11-14T00:17:57Z</time>
      </trkpt>
      <trkpt lat="47.26996" lon="-1.66508">
        <ele>57</ele>
        <time>2023-11-14T00:18:26Z</time>
      </trkpt>
      <trkpt lat="47.26936" lon="-1.66513">
        <ele>55</ele>
        <time>2023-11-14T00:19:46Z</time>
      </trkpt>
      <trkpt lat="47.26917" lon="-1.66509">
        <ele>54</ele>
        <time>2023-11-14T00:20:12Z</time>
      </trkpt>
      <trkpt lat="47.26906" lon="-1.66482">
        <ele>55</ele>
        <time>2023-11-14T00:20:40Z</time>
      </trkpt>
      <trkpt lat="47.269" lon="-1.66425">
        <ele>55</ele>
        <time>2023-11-14T00:21:33Z</time>
      </trkpt>
      <trkpt lat="47.26874" lon="-1.66379">
        <ele>55</ele>
        <time>2023-11-14T00:22:27Z</time>
      </trkpt>
      <trkpt lat="47.26835" lon="-1.66359">
        <ele>54</ele>
        <time>2023-11-14T00:23:22Z</time>
      </trkpt>
      <trkpt lat="47.26817" lon="-1.66353">
        <ele>53</ele>
        <time>2023-11-14T00:23:47Z</time>
      </trkpt>
      <trkpt lat="47.26799" lon="-1.66375">
        <ele>52</ele>
        <time>2023-11-14T00:24:18Z</time>
      </trkpt>
      <trkpt lat="47.26759" lon="-1.6639">
        <ele>49</ele>
        <time>2023-11-14T00:25:13Z</time>
      </trkpt>
      <trkpt lat="47.26747" lon="-1.66412">
        <ele>46</ele>
        <time>2023-11-14T00:25:38Z</time>
      </trkpt>
      <trkpt lat="47.26749" lon="-1.66445">
        <ele>45</ele>
        <time>2023-11-14T00:26:08Z</time>
      </trkpt>
      <trkpt lat="47.26757" lon="-1.66472">
        <ele>44</ele>
        <time>2023-11-14T00:26:35Z</time>
      </trkpt>
      <trkpt lat="47.26752" lon="-1.66498">
        <ele>42</ele>
        <time>2023-11-14T00:27:00Z</time>
      </trkpt>
      <trkpt lat="47.26759" lon="-1.66589">
        <ele>42</ele>
        <time>2023-11-14T00:28:23Z</time>
      </trkpt>
      <trkpt lat="47.26741" lon="-1.66607">
        <ele>43</ele>
        <time>2023-11-14T00:28:52Z</time>
      </trkpt>
      <trkpt lat="47.26723" lon="-1.66606">
        <ele>44</ele>
        <time>2023-11-14T00:29:16Z</time>
      </trkpt>
      <trkpt lat="47.26703" lon="-1.66615">
        <ele>46</ele>
        <time>2023-11-14T00:29:44Z</time>
      </trkpt>
      <trkpt lat="47.26698" lon="-1.66587">
        <ele>46</ele>
        <time>2023-11-14T00:30:10Z</time>
      </trkpt>
      <trkpt lat="47.26683" lon="-1.66563">
        <ele>46</ele>
        <time>2023-11-14T00:30:39Z</time>
      </trkpt>
      <trkpt lat="47.26681" lon="-1.66536">
        <ele>45</ele>
        <time>2023-11-14T00:31:04Z</time>
      </trkpt>
      <trkpt lat="47.26669" lon="-1.66479">
        <ele>43</ele>
        <time>2023-11-14T00:31:58Z</time>
      </trkpt>
      <trkpt lat="47.26653" lon="-1.66427">
        <ele>40</ele>
        <time>2023-11-14T00:32:50Z</time>
      </trkpt>
      <trkpt lat="47.26632" lon="-1.6634">
        <ele>40</ele>
        <time>2023-11-14T00:34:13Z</time>
      </trkpt>
      <trkpt lat="47.26621" lon="-1.66315">
        <ele>40</ele>
        <time>2023-11-14T00:34:40Z</time>
      </trkpt>
      <trkpt lat="47.26614" lon="-1.66288">
        <ele>40</ele>
        <time>2023-11-14T00:35:06Z</time>
      </trkpt>
      <trkpt lat="47.26616" lon="-1.66255">
        <ele>41</ele>
        <time>2023-11-14T00:35:36Z</time>
      </trkpt>
      <trkpt lat="47.26626" lon="-1.6623">
        <ele>42</ele>
        <time>2023-11-14T00:36:03Z</time>
      </trkpt>
      <trkpt lat="47.26625" lon="-1.66202">
        <ele>41</ele>
        <time>2023-11-14T00:36:28Z</time>
      </trkpt>
      <trkpt lat="47.26634" lon="-1.66175">
        <ele>42</ele>
        <time>2023-11-14T00:36:55Z</time>
      </trkpt>
      <trkpt lat="47.26639" lon="-1.66146">
        <ele>43</ele>
        <time>2023-11-14T00:37:22Z</time>
      </trkpt>
      <trkpt lat="47.26638" lon="-1.66118">
        <ele>44</ele>
        <time>2023-11-14T00:37:48Z</time>
      </trkpt>
      <trkpt lat="47.2663" lon="-1.66091">
        <ele>43</ele>
        <time>2023-11-14T00:38:15Z</time>
      </trkpt>
      <trkpt lat="47.26613" lon="-1.66071">
        <ele>42</ele>
        <time>2023-11-14T00:38:44Z</time>
      </trkpt>
      <trkpt lat="47.26574" lon="-1.66052">
        <ele>38</ele>
        <time>2023-11-14T00:39:38Z</time>
      </trkpt>
      <trkpt lat="47.26555" lon="-1.66051">
        <ele>37</ele>
        <time>2023-11-14T00:40:04Z</time>
      </trkpt>
      <trkpt lat="47.26537" lon="-1.66034">
        <ele>36</ele>
        <time>2023-11-14T00:40:32Z</time>
      </trkpt>
      <trkpt lat="47.26529" lon="-1.6601">
        <ele>35</ele>
        <time>2023-11-14T00:40:56Z</time>
      </trkpt>
      <trkpt lat="47.26528" lon="-1.65983">
        <ele>34</ele>
        <time>2023-11-14T00:41:21Z</time>
      </trkpt>
      <trkpt lat="47.26539" lon="-1.65958">
        <ele>35</ele>
        <time>2023-11-14T00:41:48Z</time>
      </trkpt>
      <trkpt lat="47.26555" lon="-1.65946">
        <ele>36</ele>
        <time>2023-11-14T00:42:12Z</time>
      </trkpt>
      <trkpt lat="47.26584" lon="-1.65951">
        <ele>38</ele>
        <time>2023-11-14T00:42:51Z</time>
      </trkpt>
      <trkpt lat="47.2661" lon="-1.65951">
        <ele>42</ele>
        <time>2023-11-14T00:43:26Z</time>
      </trkpt>
      <trkpt lat="47.26628" lon="-1.65942">
        <ele>44</ele>
        <time>2023-11-14T00:43:51Z</time>
      </trkpt>
      <trkpt lat="47.26683" lon="-1.65906">
        <ele>49</ele>
        <time>2023-11-14T00:45:11Z</time>
      </trkpt>
      <trkpt lat="47.26704" lon="-1.65897">
        <ele>48</ele>
        <time>2023-11-14T00:45:40Z</time>
      </trkpt>
      <trkpt lat="47.26723" lon="-1.65894">
        <ele>48</ele>
        <time>2023-11-14T00:46:06Z</time>
      </trkpt>
      <trkpt lat="47.26741" lon="-1.65896">
        <ele>49</ele>
        <time>2023-11-14T00:46:30Z</time>
      </trkpt>
      <trkpt lat="47.26762" lon="-1.65903">
        <ele>50</ele>
        <time>2023-11-14T00:46:59Z</time>
      </trkpt>
      <trkpt lat="47.26798" lon="-1.65879">
        <ele>47</ele>
        <time>2023-11-14T00:47:51Z</time>
      </trkpt>
      <trkpt lat="47.26819" lon="-1.65882">
        <ele>48</ele>
        <time>2023-11-14T00:48:20Z</time>
      </trkpt>
      <trkpt lat="47.26825" lon="-1.65855">
        <ele>46</ele>
        <time>2023-11-14T00:48:45Z</time>
      </trkpt>
      <trkpt lat="47.26842" lon="-1.65833">
        <ele>46</ele>
        <time>2023-11-14T00:49:16Z</time>
      </trkpt>
      <trkpt lat="47.26859" lon="-1.65817">
        <ele>46</ele>
        <time>2023-11-14T00:49:42Z</time>
      </trkpt>
      <trkpt lat="47.26861" lon="-1.65761">
        <ele>42</ele>
        <time>2023-11-14T00:50:33Z</time>
      </trkpt>
      <trkpt lat="47.26867" lon="-1.65734">
        <ele>41</ele>
        <time>2023-11-14T00:50:59Z</time>
      </trkpt>
      <trkpt lat="47.26878" lon="-1.65712">
        <ele>40</ele>
        <time>2023-11-14T00:51:24Z</time>
      </trkpt>
      <trkpt lat="47.26886" lon="-1.65687">
        <ele>39</ele>
        <time>2023-11-14T00:51:49Z</time>
      </trkpt>
      <trkpt lat="47.26919" lon="-1.65713">
        <ele>43</ele>
        <time>2023-11-14T00:52:39Z</time>
      </trkpt>
      <trkpt lat="47.26937" lon="-1.65709">
        <ele>44</ele>
        <time>2023-11-14T00:53:03Z</time>
      </trkpt>
      <trkpt lat="47.26979" lon="-1.65721">
        <ele>46</ele>
        <time>2023-11-14T00:54:00Z</time>
      </trkpt>
      <trkpt lat="47.26996" lon="-1.65732">
        <ele>47</ele>
        <time>2023-11-14T00:54:25Z</time>
      </trkpt>
      <trkpt lat="47.27015" lon="-1.65739">
        <ele>47</ele>
        <time>2023-11-14T00:54:51Z</time>
      </trkpt>
      <trkpt lat="47.27035" lon="-1.65737">
        <ele>48</ele>
        <time>2023-11-14T00:55:18Z</time>
      </trkpt>
      <trkpt lat="47.27043" lon="-1.65709">
        <ele>48</ele>
        <time>2023-11-14T00:55:45Z</time>
      </trkpt>
      <trkpt lat="47.27046" lon="-1.65681">
        <ele>48</ele>
        <time>2023-11-14T00:56:11Z</time>
      </trkpt>
      <trkpt lat="47.27042" lon="-1.65654">
        <ele>48</ele>
        <time>2023-11-14T00:56:36Z</time>
      </trkpt>
      <trkpt lat="47.27024" lon="-1.65645">
        <ele>47</ele>
        <time>2023-11-14T00:57:01Z</time>
      </trkpt>
      <trkpt lat="47.27002" lon="-1.65643">
        <ele>46</ele>
        <time>2023-11-14T00:57:31Z</time>
      </trkpt>
      <trkpt lat="47.26964" lon="-1.65632">
        <ele>44</ele>
        <time>2023-11-14T00:58:22Z</time>
      </trkpt>
      <trkpt lat="47.26943" lon="-1.65622">
        <ele>43</ele>
        <time>2023-11-14T00:58:52Z</time>
      </trkpt>
      <trkpt lat="47.26923" lon="-1.65616">
        <ele>41</ele>
        <time>2023-11-14T00:59:19Z</time>
      </trkpt>
      <trkpt lat="47.26887" lon="-1.65591">
        <ele>37</ele>
        <time>2023-11-14T01:00:12Z</time>
      </trkpt>
      <trkpt lat="47.26873" lon="-1.65573">
        <ele>35</ele>
        <time>2023-11-14T01:00:37Z</time>
      </trkpt>
      <trkpt lat="47.26862" lon="-1.65551">
        <ele>34</ele>
        <time>2023-11-14T01:01:02Z</time>
      </trkpt>
      <trkpt lat="47.26857" lon="-1.65579">
        <ele>34</ele>
        <time>2023-11-14T01:01:28Z</time>
      </trkpt>
      <trkpt lat="47.26865" lon="-1.6561">
        <ele>35</ele>
        <time>2023-11-14T01:01:58Z</time>
      </trkpt>
      <trkpt lat="47.26859" lon="-1.65668">
        <ele>35</ele>
        <time>2023-11-14T01:02:51Z</time>
      </trkpt>
      <trkpt lat="47.26855" lon="-1.65698">
        <ele>37</ele>
        <time>2023-11-14T01:03:19Z</time>
      </trkpt>
      <trkpt lat="47.26843" lon="-1.65718">
        <ele>38</ele>
        <time>2023-11-14T01:03:43Z</time>
      </trkpt>
      <trkpt lat="47.26837" lon="-1.65744">
        <ele>40</ele>
        <time>2023-11-14T01:04:08Z</time>
      </trkpt>
      <trkpt lat="47.26788" lon="-1.65786">
        <ele>39</ele>
        <time>2023-11-14T01:05:23Z</time>
      </trkpt>
      <trkpt lat="47.26777" lon="-1.65809">
        <ele>40</ele>
        <time>2023-11-14T01:05:49Z</time>
      </trkpt>
      <trkpt lat="47.26763" lon="-1.65829">
        <ele>41</ele>
        <time>2023-11-14T01:06:15Z</time>
      </trkpt>
      <trkpt lat="47.2674" lon="-1.6584">
        <ele>41</ele>
        <time>2023-11-14T01:06:47Z</time>
      </trkpt>
      <trkpt lat="47.2672" lon="-1.65839">
        <ele>41</ele>
        <time>2023-11-14T01:07:14Z</time>
      </trkpt>
      <trkpt lat="47.26703" lon="-1.65853">
        <ele>43</ele>
        <time>2023-11-14T01:07:40Z</time>
      </trkpt>
      <trkpt lat="47.26681" lon="-1.65859">
        <ele>43</ele>
        <time>2023-11-14T01:08:10Z</time>
      </trkpt>
      <trkpt lat="47.26662" lon="-1.6585">
        <ele>42</ele>
        <time>2023-11-14T01:08:36Z</time>
      </trkpt>
      <trkpt lat="47.2664" lon="-1.65852">
        <ele>40</ele>
        <time>2023-11-14T01:09:06Z</time>
      </trkpt>
      <trkpt lat="47.26621" lon="-1.65843">
        <ele>38</ele>
        <time>2023-11-14T01:09:32Z</time>
      </trkpt>
      <trkpt lat="47.26603" lon="-1.65838">
        <ele>37</ele>
        <time>2023-11-14T01:09:57Z</time>
      </trkpt>
      <trkpt lat="47.26585" lon="-1.65853">
        <ele>36</ele>
        <time>2023-11-14T01:10:24Z</time>
      </trkpt>
      <trkpt lat="47.26569" lon="-1.65905">
        <ele>36</ele>
        <time>2023-11-14T01:11:16Z</time>
      </trkpt>
      <trkpt lat="47.26549" lon="-1.65903">
        <ele>35</ele>
        <time>2023-11-14T01:11:43Z</time>
      </trkpt>
      <trkpt lat="47.26526" lon="-1.65853">
        <ele>36</ele>
        <time>2023-11-14T01:12:38Z</time>
      </trkpt>
      <trkpt lat="47.26512" lon="-1.65833">
        <ele>37</ele>
        <time>2023-11-14T01:13:04Z</time>
      </trkpt>
      <trkpt lat="47.26495" lon="-1.65815">
        <ele>39</ele>
        <time>2023-11-14T01:13:32Z</time>
      </trkpt>
      <trkpt lat="47.26488" lon="-1.65786">
        <ele>42</ele>
        <time>2023-11-14T01:13:59Z</time>
      </trkpt>
      <trkpt lat="47.26436" lon="-1.65744">
        <ele>48</ele>
        <time>2023-11-14T01:15:19Z</time>
      </trkpt>
      <trkpt lat="47.26421" lon="-1.65724">
        <ele>50</ele>
        <time>2023-11-14T01:15:46Z</time>
      </trkpt>
      <trkpt lat="47.26402" lon="-1.65715">
        <ele>51</ele>
        <time>2023-11-14T01:16:12Z</time>
      </trkpt>
      <trkpt lat="47.26384" lon="-1.65712">
        <ele>53</ele>
        <time>2023-11-14T01:16:36Z</time>
      </trkpt>
      <trkpt lat="47.26345" lon="-1.65722">
        <ele>56</ele>
        <time>2023-11-14T01:17:29Z</time>
      </trkpt>
      <trkpt lat="47.26323" lon="-1.65723">
        <ele>57</ele>
        <time>2023-11-14T01:17:59Z</time>
      </trkpt>
      <trkpt lat="47.26305" lon="-1.65717">
        <ele>59</ele>
        <time>2023-11-14T01:18:23Z</time>
      </trkpt>
      <trkpt lat="47.26285" lon="-1.65724">
        <ele>60</ele>
        <time>2023-11-14T01:18:51Z</time>
      </trkpt>
      <trkpt lat="47.26273" lon="-1.65746">
        <ele>61</ele>
        <time>2023-11-14T01:19:16Z</time>
      </trkpt>
      <trkpt lat="47.26255" lon="-1.65757">
        <ele>62</ele>
        <time>2023-11-14T01:19:42Z</time>
      </trkpt>
      <trkpt lat="47.26236" lon="-1.65751">
        <ele>62</ele>
        <time>2023-11-14T01:20:08Z</time>
      </trkpt>
      <trkpt lat="47.26157" lon="-1.65742">
        <ele>64</ele>
        <time>2023-11-14T01:21:54Z</time>
      </trkpt>
      <trkpt lat="47.26114" lon="-1.65729">
        <ele>64</ele>
        <time>2023-11-14T01:22:52Z</time>
      </trkpt>
      <trkpt lat="47.26099" lon="-1.65708">
        <ele>63</ele>
        <time>2023-11-14T01:23:20Z</time>
      </trkpt>
      <trkpt lat="47.26081" lon="-1.65691">
        <ele>63</ele>
        <time>2023-11-14T01:23:49Z</time>
      </trkpt>
      <trkpt lat="47.26068" lon="-1.65671">
        <ele>63</ele>
        <time>2023-11-14T01:24:14Z</time>
      </trkpt>
      <trkpt lat="47.26062" lon="-1.65644">
        <ele>64</ele>
        <time>2023-11-14T01:24:39Z</time>
      </trkpt>
    </trkseg>
  </trk>
</gpx>